createdAt,value
2018-12-07T00:01:21.560Z,9.74
2018-12-07T00:04:09.430Z,9.72
2018-12-07T00:06:56.670Z,9.74
2018-12-07T00:09:43.901Z,9.81
2018-12-07T00:12:31.881Z,9.79
2018-12-07T00:18:31.094Z,9.78
2018-12-07T00:21:39.488Z,9.76
2018-12-07T00:24:07.158Z,9.85
2018-12-07T00:26:34.793Z,9.82
2018-12-07T00:29:02.474Z,9.79
2018-12-07T00:31:51.440Z,9.75
2018-12-07T00:35:05.718Z,9.84
2018-12-07T00:37:33.274Z,9.82
2018-12-07T00:40:00.829Z,9.80
2018-12-07T00:42:28.422Z,9.88
2018-12-07T00:44:57.525Z,9.88
2018-12-07T00:47:27.425Z,9.89
2018-12-07T00:49:55.612Z,9.96
2018-12-07T00:52:23.160Z,9.95
2018-12-07T00:54:50.769Z,9.91
2018-12-07T00:57:20.231Z,9.92
2018-12-07T00:59:48.185Z,10.01
2018-12-07T01:02:15.735Z,9.97
2018-12-07T01:04:43.283Z,9.96
2018-12-07T01:07:10.834Z,9.98
2018-12-07T01:09:38.384Z,9.97
2018-12-07T01:12:05.969Z,9.94
2018-12-07T01:14:33.530Z,9.95
2018-12-07T01:17:01.088Z,10.01
2018-12-07T01:19:28.657Z,10.04
2018-12-07T01:21:56.202Z,10.14
2018-12-07T01:24:23.759Z,10.12
2018-12-07T01:26:54.594Z,10.04
2018-12-07T01:29:22.215Z,10.15
2018-12-07T01:31:49.769Z,10.13
2018-12-07T01:34:17.331Z,10.14
2018-12-07T01:36:44.883Z,10.07
2018-12-07T01:39:12.431Z,10.06
2018-12-07T01:41:44.516Z,10.04
2018-12-07T01:44:12.170Z,10.05
2018-12-07T01:46:39.737Z,10.03
2018-12-07T01:49:07.292Z,9.97
2018-12-07T01:51:34.964Z,9.98
2018-12-07T01:54:04.658Z,9.98
2018-12-07T01:56:33.338Z,9.98
2018-12-07T01:59:02.971Z,10.01
2018-12-07T02:01:30.533Z,10.01
2018-12-07T02:03:58.119Z,10.00
2018-12-07T02:06:25.771Z,10.02
2018-12-07T02:08:53.332Z,10.03
2018-12-07T02:11:24.853Z,10.05
2018-12-07T02:13:52.841Z,10.14
2018-12-07T02:16:20.399Z,10.13
2018-12-07T02:18:47.950Z,10.14
2018-12-07T02:21:15.527Z,10.18
2018-12-07T02:23:43.082Z,10.15
2018-12-07T02:26:10.628Z,10.14
2018-12-07T02:28:38.235Z,10.10
2018-12-07T02:31:06.950Z,10.12
2018-12-07T02:33:35.835Z,10.15
2018-12-07T02:36:05.498Z,10.17
2018-12-07T02:38:34.976Z,10.12
2018-12-07T02:41:02.582Z,10.14
2018-12-07T02:43:30.138Z,10.11
2018-12-07T02:45:57.688Z,10.09
2018-12-07T02:48:25.257Z,10.13
2018-12-07T02:50:52.896Z,10.13
2018-12-07T02:53:20.483Z,10.18
2018-12-07T02:55:48.014Z,10.20
2018-12-07T02:58:15.553Z,10.24
2018-12-07T03:00:43.090Z,10.27
2018-12-07T03:03:10.631Z,10.26
2018-12-07T03:05:40.659Z,10.31
2018-12-07T03:08:10.687Z,10.32
2018-12-07T03:10:38.587Z,10.38
2018-12-07T03:13:06.122Z,10.37
2018-12-07T03:15:33.689Z,10.31
2018-12-07T03:18:01.321Z,10.30
2018-12-07T03:20:28.862Z,10.27
2018-12-07T03:22:56.404Z,10.26
2018-12-07T03:25:23.938Z,10.27
2018-12-07T03:27:51.464Z,10.34
2018-12-07T03:30:19.010Z,10.36
2018-12-07T03:32:46.552Z,10.34
2018-12-07T03:35:14.106Z,10.35
2018-12-07T03:37:41.647Z,10.36
2018-12-07T03:40:11.068Z,10.37
2018-12-07T03:42:40.789Z,10.35
2018-12-07T03:45:08.333Z,10.36
2018-12-07T03:47:35.878Z,10.35
2018-12-07T03:50:03.633Z,10.35
2018-12-07T03:52:31.174Z,10.33
2018-12-07T03:54:58.724Z,10.32
2018-12-07T03:57:26.259Z,10.36
2018-12-07T03:59:53.793Z,10.38
2018-12-07T04:02:21.328Z,10.39
2018-12-07T04:04:48.883Z,10.43
2018-12-07T04:07:16.413Z,10.41
2018-12-07T04:09:43.950Z,10.42
2018-12-07T04:12:12.933Z,10.37
2018-12-07T04:14:42.590Z,10.41
2018-12-07T04:17:10.185Z,10.46
2018-12-07T04:19:38.015Z,10.47
2018-12-07T04:22:05.666Z,10.49
2018-12-07T04:24:33.200Z,10.47
2018-12-07T04:27:00.861Z,10.45
2018-12-07T04:29:29.525Z,10.46
2018-12-07T04:31:57.128Z,10.45
2018-12-07T04:34:24.678Z,10.49
2018-12-07T04:36:52.263Z,10.53
2018-12-07T04:39:20.139Z,10.56
2018-12-07T04:41:47.883Z,10.57
2018-12-07T04:44:15.423Z,10.57
2018-12-07T04:46:42.961Z,10.54
2018-12-07T04:49:10.487Z,10.54
2018-12-07T04:51:39.329Z,10.54
2018-12-07T04:54:08.512Z,10.55
2018-12-07T04:56:37.363Z,10.53
2018-12-07T04:59:04.901Z,10.53
2018-12-07T05:01:32.447Z,10.53
2018-12-07T05:03:59.999Z,10.52
2018-12-07T05:06:27.555Z,10.59
2018-12-07T05:08:55.103Z,10.53
2018-12-07T05:11:25.720Z,10.54
2018-12-07T05:13:54.439Z,10.55
2018-12-07T05:16:23.705Z,10.54
2018-12-07T05:18:51.330Z,10.56
2018-12-07T05:21:18.875Z,10.56
2018-12-07T05:23:48.176Z,10.55
2018-12-07T05:26:17.744Z,10.53
2018-12-07T05:28:45.609Z,10.57
2018-12-07T05:31:13.143Z,10.57
2018-12-07T05:33:40.679Z,10.51
2018-12-07T05:36:08.243Z,10.53
2018-12-07T05:38:35.973Z,10.52
2018-12-07T05:41:03.511Z,10.55
2018-12-07T05:43:31.058Z,10.55
2018-12-07T05:45:58.597Z,10.53
2018-12-07T05:48:26.128Z,10.57
2018-12-07T05:50:53.659Z,10.55
2018-12-07T05:53:22.676Z,10.60
2018-12-07T05:55:50.873Z,10.60
2018-12-07T05:58:18.405Z,10.57
2018-12-07T06:00:45.965Z,10.59
2018-12-07T06:03:13.578Z,10.62
2018-12-07T06:05:41.208Z,10.60
2018-12-07T06:08:08.736Z,10.61
2018-12-07T06:10:36.272Z,10.65
2018-12-07T06:13:03.916Z,10.71
2018-12-07T06:15:31.448Z,10.67
2018-12-07T06:17:59.014Z,10.64
2018-12-07T06:20:28.947Z,10.59
2018-12-07T06:22:56.988Z,10.58
2018-12-07T06:25:24.514Z,10.63
2018-12-07T06:27:53.174Z,10.58
2018-12-07T06:30:21.029Z,10.52
2018-12-07T06:32:51.405Z,10.49
2018-12-07T06:35:19.605Z,10.47
2018-12-07T06:37:47.142Z,10.48
2018-12-07T06:40:14.680Z,10.52
2018-12-07T06:42:42.227Z,10.49
2018-12-07T06:45:09.865Z,10.45
2018-12-07T06:47:37.408Z,10.51
2018-12-07T06:50:07.469Z,10.48
2018-12-07T06:52:35.016Z,10.47
2018-12-07T06:55:02.558Z,10.47
2018-12-07T06:57:30.114Z,10.50
2018-12-07T06:59:58.091Z,10.47
2018-12-07T07:02:28.757Z,10.48
2018-12-07T07:04:56.832Z,10.54
2018-12-07T07:07:25.989Z,10.50
2018-12-07T07:09:54.900Z,10.47
2018-12-07T07:12:23.771Z,10.51
2018-12-07T07:14:51.773Z,10.46
2018-12-07T07:17:19.319Z,10.47
2018-12-07T07:19:46.855Z,10.53
2018-12-07T07:22:14.395Z,10.55
2018-12-07T07:24:41.939Z,10.53
2018-12-07T07:27:09.476Z,10.55
2018-12-07T07:29:37.050Z,10.57
2018-12-07T07:32:04.703Z,10.59
2018-12-07T07:34:32.233Z,10.62
2018-12-07T07:36:59.769Z,10.59
2018-12-07T07:39:27.330Z,10.61
2018-12-07T07:41:57.063Z,10.64
2018-12-07T07:44:26.259Z,10.62
2018-12-07T07:46:54.904Z,10.62
2018-12-07T07:49:22.557Z,10.61
2018-12-07T07:51:50.098Z,10.64
2018-12-07T07:54:17.626Z,10.68
2018-12-07T07:56:46.580Z,10.73
2018-12-07T07:59:14.186Z,10.74
2018-12-07T08:01:41.717Z,10.72
2018-12-07T08:04:09.260Z,10.74
2018-12-07T08:06:36.809Z,10.78
2018-12-07T08:09:06.149Z,10.75
2018-12-07T08:11:35.613Z,10.72
2018-12-07T08:14:03.151Z,10.75
2018-12-07T08:16:30.711Z,10.78
2018-12-07T08:18:58.241Z,10.78
2018-12-07T08:21:25.780Z,10.75
2018-12-07T08:23:54.989Z,10.73
2018-12-07T08:26:24.891Z,10.81
2018-12-07T08:28:52.473Z,10.80
2018-12-07T08:31:20.316Z,10.75
2018-12-07T08:33:49.542Z,10.82
2018-12-07T08:36:19.465Z,10.88
2018-12-07T08:38:47.002Z,10.83
2018-12-07T08:41:14.536Z,10.84
2018-12-07T08:43:43.794Z,10.86
2018-12-07T08:46:13.417Z,10.91
2018-12-07T08:48:40.962Z,11.00
2018-12-07T08:51:08.493Z,10.91
2018-12-07T08:53:36.041Z,10.91
2018-12-07T08:56:03.567Z,10.90
2018-12-07T08:58:31.100Z,10.90
2018-12-07T09:00:58.644Z,10.95
2018-12-07T09:03:26.180Z,10.99
2018-12-07T09:05:53.723Z,10.95
2018-12-07T09:08:23.405Z,10.92
2018-12-07T09:10:52.984Z,10.94
2018-12-07T09:13:22.796Z,10.95
2018-12-07T09:15:50.926Z,10.99
2018-12-07T09:18:18.912Z,11.09
2018-12-07T09:20:53.757Z,11.09
2018-12-07T09:23:16.018Z,11.09
2018-12-07T09:25:43.565Z,11.14
2018-12-07T09:28:11.098Z,11.18
2018-12-07T09:30:38.636Z,11.32
2018-12-07T09:33:07.465Z,11.31
2018-12-07T09:35:37.185Z,11.32
2018-12-07T09:38:13.095Z,11.52
2018-12-07T09:40:37.032Z,11.61
2018-12-07T09:43:04.577Z,11.66
2018-12-07T09:45:32.127Z,11.72
2018-12-07T09:48:00.508Z,11.71
2018-12-07T09:50:28.041Z,11.80
2018-12-07T09:52:55.604Z,11.95
2018-12-07T09:55:25.421Z,11.91
2018-12-07T09:57:52.957Z,11.81
2018-12-07T10:00:20.503Z,11.74
2018-12-07T10:02:48.045Z,11.77
2018-12-07T10:05:15.593Z,11.83
2018-12-07T10:07:43.625Z,11.83
2018-12-07T10:10:12.788Z,11.85
2018-12-07T10:12:40.905Z,11.85
2018-12-07T10:15:08.445Z,11.86
2018-12-07T10:17:35.980Z,11.94
2018-12-07T10:20:04.142Z,11.86
2018-12-07T10:22:31.685Z,11.95
2018-12-07T10:24:59.228Z,11.84
2018-12-07T10:27:28.281Z,11.82
2018-12-07T10:29:55.975Z,11.90
2018-12-07T10:32:23.518Z,11.88
2018-12-07T10:34:51.055Z,11.92
2018-12-07T10:37:18.600Z,11.98
2018-12-07T10:39:46.131Z,11.94
2018-12-07T10:42:13.659Z,11.78
2018-12-07T10:44:41.197Z,11.72
2018-12-07T10:47:08.724Z,11.70
2018-12-07T10:49:36.492Z,11.69
2018-12-07T10:52:07.240Z,11.71
2018-12-07T10:54:34.771Z,11.78
2018-12-07T10:57:02.311Z,11.79
2018-12-07T10:59:29.840Z,11.93
2018-12-07T11:02:03.879Z,11.95
2018-12-07T11:04:38.877Z,11.93
2018-12-07T11:07:12.047Z,11.88
2018-12-07T11:09:45.223Z,11.87
2018-12-07T11:12:18.481Z,11.97
2018-12-07T11:14:52.381Z,11.93
2018-12-07T11:17:26.319Z,11.89
2018-12-07T11:20:00.204Z,11.89
2018-12-07T11:22:33.419Z,11.96
2018-12-07T11:25:07.527Z,12.04
2018-12-07T11:30:48.101Z,12.07
2018-12-07T11:33:21.585Z,12.11
2018-12-07T11:35:50.624Z,12.00
2018-12-07T11:38:19.702Z,12.00
2018-12-07T11:40:49.657Z,12.08
2018-12-07T11:43:17.970Z,12.05
2018-12-07T11:45:45.508Z,12.03
2018-12-07T11:48:13.070Z,11.91
2018-12-07T11:50:40.608Z,11.90
2018-12-07T11:53:08.147Z,11.93
2018-12-07T11:55:35.673Z,11.81
2018-12-07T11:58:03.210Z,11.87
2018-12-07T12:00:30.767Z,11.97
2018-12-07T12:02:58.326Z,11.85
2018-12-07T12:05:25.889Z,11.83
2018-12-07T12:07:53.427Z,11.94
2018-12-07T12:10:20.951Z,11.83
2018-12-07T12:12:48.577Z,11.75
2018-12-07T12:15:16.099Z,11.72
2018-12-07T12:17:44.268Z,11.68
2018-12-07T12:20:12.083Z,11.86
2018-12-07T12:22:39.617Z,11.68
2018-12-07T12:25:07.255Z,11.82
2018-12-07T12:27:34.785Z,11.78
2018-12-07T12:30:02.436Z,11.78
2018-12-07T12:32:31.736Z,11.79
2018-12-07T12:35:00.104Z,11.78
2018-12-07T12:37:28.044Z,11.86
2018-12-07T12:39:55.578Z,11.74
2018-12-07T12:42:23.112Z,11.64
2018-12-07T12:44:50.646Z,11.47
2018-12-07T12:47:18.176Z,11.43
2018-12-07T12:49:45.709Z,11.40
2018-12-07T12:52:13.244Z,11.31
2018-12-07T12:54:40.782Z,11.33
2018-12-07T12:57:09.311Z,11.45
2018-12-07T12:59:37.980Z,11.33
2018-12-07T13:02:05.628Z,11.37
2018-12-07T13:04:33.828Z,11.49
2018-12-07T13:07:01.458Z,11.45
2018-12-07T13:09:29.005Z,11.47
2018-12-07T13:11:56.540Z,11.36
2018-12-07T13:14:24.090Z,11.33
2018-12-07T13:16:51.653Z,11.27
2018-12-07T13:19:19.192Z,11.30
2018-12-07T13:21:46.734Z,11.29
2018-12-07T13:24:14.267Z,11.27
2018-12-07T13:26:41.805Z,11.28
2018-12-07T13:29:09.365Z,11.29
2018-12-07T13:31:38.524Z,11.30
2018-12-07T13:34:07.957Z,11.25
2018-12-07T13:36:38.178Z,11.16
2018-12-07T13:39:07.182Z,11.13
2018-12-07T13:41:36.976Z,11.08
2018-12-07T13:44:05.011Z,10.97
2018-12-07T13:46:32.616Z,10.92
2018-12-07T13:49:00.263Z,10.84
2018-12-07T13:51:27.999Z,10.74
2018-12-07T13:53:55.782Z,10.64
2018-12-07T13:56:23.767Z,10.54
2018-12-07T13:58:52.045Z,10.61
2018-12-07T14:01:19.757Z,10.56
2018-12-07T14:03:47.609Z,10.53
2018-12-07T14:06:15.442Z,10.50
2018-12-07T14:08:43.258Z,10.53
2018-12-07T14:11:11.030Z,10.41
2018-12-07T14:13:38.877Z,10.42
2018-12-07T14:16:06.666Z,10.41
2018-12-07T14:18:34.452Z,10.37
2018-12-07T14:21:02.374Z,10.40
2018-12-07T14:23:30.201Z,10.36
2018-12-07T14:25:59.754Z,10.38
2018-12-07T14:28:27.409Z,10.36
2018-12-07T14:30:55.081Z,10.27
2018-12-07T14:33:22.791Z,10.26
2018-12-07T14:35:50.633Z,10.26
2018-12-07T14:38:20.902Z,10.19
2018-12-07T14:40:49.006Z,10.28
2018-12-07T14:43:16.540Z,10.32
2018-12-07T14:45:44.112Z,10.37
2018-12-07T14:48:13.070Z,10.27
2018-12-07T14:50:40.791Z,10.21
2018-12-07T14:53:10.844Z,10.11
2018-12-07T14:55:39.141Z,10.15
2018-12-07T14:58:07.424Z,10.01
2018-12-07T15:00:36.728Z,9.88
2018-12-07T15:03:05.423Z,9.82
2018-12-07T15:05:33.221Z,9.74
2018-12-07T15:08:00.992Z,9.72
2018-12-07T15:10:29.149Z,9.69
2018-12-07T15:12:56.823Z,9.70
2018-12-07T15:15:24.421Z,9.63
2018-12-07T15:17:52.220Z,9.61
2018-12-07T15:20:19.830Z,9.65
2018-12-07T15:22:47.404Z,9.66
2018-12-07T15:25:16.875Z,9.66
2018-12-07T15:27:44.969Z,9.66
2018-12-07T15:30:12.756Z,9.63
2018-12-07T15:32:40.368Z,9.60
2018-12-07T15:35:08.238Z,9.56
2018-12-07T15:37:35.989Z,9.52
2018-12-07T15:40:05.136Z,9.55
2018-12-07T15:42:32.998Z,9.58
2018-12-07T15:45:01.684Z,9.54
2018-12-07T15:47:30.965Z,9.58
2018-12-07T15:49:58.828Z,9.56
2018-12-07T15:52:26.563Z,9.55
2018-12-07T15:54:54.256Z,9.57
2018-12-07T15:57:21.947Z,9.59
2018-12-07T15:59:49.585Z,9.58
2018-12-07T16:02:17.329Z,9.60
2018-12-07T16:04:45.267Z,9.60
2018-12-07T16:07:13.765Z,9.63
2018-12-07T16:09:43.281Z,9.56
2018-12-07T16:12:13.999Z,9.58
2018-12-07T16:14:41.702Z,9.58
2018-12-07T16:17:09.309Z,9.58
2018-12-07T16:19:36.926Z,9.61
2018-12-07T16:22:04.562Z,9.66
2018-12-07T16:24:32.583Z,9.65
2018-12-07T16:27:00.362Z,9.68
2018-12-07T16:29:28.165Z,9.70
2018-12-07T16:31:56.116Z,9.69
2018-12-07T16:34:23.874Z,9.70
2018-12-07T16:36:51.710Z,9.71
2018-12-07T16:39:19.449Z,9.65
2018-12-07T16:41:47.239Z,9.61
2018-12-07T16:44:15.103Z,9.65
2018-12-07T16:46:43.605Z,9.79
2018-12-07T16:49:12.229Z,9.81
2018-12-07T16:51:41.026Z,9.77
2018-12-07T16:54:09.087Z,9.76
2018-12-07T16:56:36.792Z,9.86
2018-12-07T16:59:04.482Z,9.90
2018-12-07T17:01:32.252Z,9.98
2018-12-07T17:04:00.184Z,10.00
2018-12-07T17:06:27.913Z,10.09
2018-12-07T17:08:55.996Z,10.13
2018-12-07T17:11:23.845Z,10.13
2018-12-07T17:13:51.497Z,10.11
2018-12-07T17:16:19.063Z,10.20
2018-12-07T17:18:46.738Z,10.24
2018-12-07T17:21:14.547Z,10.25
2018-12-07T17:23:43.013Z,10.23
2018-12-07T17:26:10.605Z,10.22
2018-12-07T17:28:38.332Z,10.24
2018-12-07T17:31:06.308Z,10.21
2018-12-07T17:33:34.045Z,10.28
2018-12-07T17:36:01.600Z,10.17
2018-12-07T17:38:29.884Z,10.10
2018-12-07T17:40:58.419Z,10.10
2018-12-07T17:43:26.190Z,10.07
2018-12-07T17:45:54.550Z,10.14
2018-12-07T17:48:22.230Z,10.15
2018-12-07T17:50:49.904Z,10.17
2018-12-07T17:53:18.070Z,10.20
2018-12-07T17:55:46.115Z,10.18
2018-12-07T17:58:13.870Z,10.16
2018-12-07T18:00:41.775Z,10.16
2018-12-07T18:03:10.015Z,10.07
2018-12-07T18:05:37.545Z,10.10
2018-12-07T18:08:05.168Z,10.14
2018-12-07T18:10:32.733Z,10.05
2018-12-07T18:13:00.460Z,10.05
2018-12-07T18:15:29.500Z,10.04
2018-12-07T18:17:57.237Z,10.07
2018-12-07T18:20:26.119Z,10.09
2018-12-07T18:22:53.803Z,10.10
2018-12-07T18:25:22.569Z,10.12
2018-12-07T18:27:50.497Z,10.12
2018-12-07T18:30:18.294Z,9.97
2018-12-07T18:32:47.662Z,9.82
2018-12-07T18:35:15.567Z,9.71
2018-12-07T18:37:43.199Z,9.61
2018-12-07T18:40:11.005Z,9.52
2018-12-07T18:42:38.769Z,9.41
2018-12-07T18:45:07.381Z,9.22
2018-12-07T18:47:36.098Z,9.20
2018-12-07T18:50:08.286Z,8.98
2018-12-07T18:52:36.038Z,8.88
2018-12-07T18:55:04.624Z,8.92
2018-12-07T18:57:32.314Z,8.88
2018-12-07T19:00:00.071Z,8.83
2018-12-07T19:02:27.998Z,8.78
2018-12-07T19:04:55.621Z,8.80
2018-12-07T19:07:25.424Z,8.81
2018-12-07T19:09:54.545Z,8.86
2018-12-07T19:12:23.860Z,8.82
2018-12-07T19:14:51.529Z,8.83
2018-12-07T19:17:19.511Z,8.85
2018-12-07T19:19:47.219Z,8.83
2018-12-07T19:22:15.057Z,8.91
2018-12-07T19:24:42.732Z,8.91
2018-12-07T19:27:10.270Z,9.00
2018-12-07T19:29:38.342Z,9.01
2018-12-07T19:32:06.288Z,8.94
2018-12-07T19:34:33.967Z,8.97
2018-12-07T19:37:01.886Z,8.98
2018-12-07T19:39:31.013Z,9.02
2018-12-07T19:42:00.189Z,9.08
2018-12-07T19:44:29.455Z,9.07
2018-12-07T19:46:57.114Z,9.13
2018-12-07T19:49:24.983Z,9.16
2018-12-07T19:51:52.908Z,9.35
2018-12-07T19:54:20.741Z,9.43
2018-12-07T19:56:48.495Z,9.51
2018-12-07T19:59:16.500Z,9.54
2018-12-07T20:01:44.239Z,9.61
2018-12-07T20:04:12.959Z,9.64
2018-12-07T20:06:40.616Z,9.67
2018-12-07T20:09:08.342Z,9.63
2018-12-07T20:11:36.106Z,9.71
2018-12-07T20:14:03.848Z,9.70
2018-12-07T20:16:31.612Z,9.76
2018-12-07T20:18:59.288Z,9.82
2018-12-07T20:21:26.923Z,9.83
2018-12-07T20:23:54.793Z,9.86
2018-12-07T20:26:22.329Z,9.83
2018-12-07T20:28:49.878Z,9.90
2018-12-07T20:31:17.489Z,9.92
2018-12-07T20:33:47.717Z,9.94
2018-12-07T20:36:16.194Z,9.93
2018-12-07T20:38:43.830Z,9.92
2018-12-07T20:41:11.429Z,9.89
2018-12-07T20:43:39.343Z,9.89
2018-12-07T20:46:07.058Z,9.88
2018-12-07T20:48:35.039Z,9.80
2018-12-07T20:51:02.871Z,9.76
2018-12-07T20:53:30.540Z,9.52
2018-12-07T20:55:58.313Z,8.13
2018-12-07T20:58:26.093Z,7.68
2018-12-07T21:00:59.281Z,7.64
2018-12-07T21:13:34.751Z,7.19
2018-12-07T21:19:19.219Z,7.13
2018-12-07T21:21:47.159Z,7.08
2018-12-07T21:24:15.669Z,7.06
2018-12-07T21:26:46.162Z,7.04
2018-12-07T21:29:14.095Z,7.10
2018-12-07T21:31:42.034Z,7.03
2018-12-07T21:34:14.306Z,7.02
2018-12-07T21:36:42.474Z,7.00
2018-12-07T21:39:20.257Z,7.02
2018-12-07T21:41:47.928Z,7.02
2018-12-07T21:44:15.474Z,7.06
2018-12-07T21:46:43.104Z,7.00
2018-12-07T21:49:11.063Z,6.90
2018-12-07T21:51:43.003Z,6.83
2018-12-07T21:54:10.853Z,6.86
2018-12-07T21:56:38.789Z,6.85
2018-12-07T21:59:06.444Z,6.97
2018-12-07T22:01:34.085Z,6.86
2018-12-07T22:04:01.636Z,6.90
2018-12-07T22:06:29.375Z,6.88
2018-12-07T22:11:31.970Z,6.89
2018-12-07T22:14:01.707Z,6.96
2018-12-07T22:16:29.924Z,6.86
2018-12-07T22:18:57.464Z,6.84
2018-12-07T22:21:25.006Z,6.87
2018-12-07T22:23:53.057Z,6.89
2018-12-07T22:26:20.897Z,6.86
2018-12-07T22:28:48.785Z,6.81
2018-12-07T22:31:16.465Z,6.89
2018-12-07T22:33:44.653Z,6.76
2018-12-07T22:36:12.633Z,6.74
2018-12-07T22:38:40.425Z,6.70
2018-12-07T22:41:09.489Z,6.57
2018-12-07T22:43:40.381Z,6.57
2018-12-07T22:46:08.302Z,6.54
2018-12-07T22:48:36.008Z,6.41
2018-12-07T22:51:04.130Z,6.36
2018-12-07T22:53:31.666Z,6.38
2018-12-07T22:55:59.368Z,6.38
2018-12-07T22:58:26.944Z,6.36
2018-12-07T23:00:54.501Z,6.38
2018-12-07T23:03:22.049Z,6.43
2018-12-07T23:05:50.849Z,6.40
2018-12-07T23:08:18.392Z,6.40
2018-12-07T23:10:47.273Z,6.41
2018-12-07T23:13:16.344Z,6.41
2018-12-07T23:15:43.980Z,6.41
2018-12-07T23:18:11.515Z,6.31
2018-12-07T23:20:39.286Z,6.29
2018-12-07T23:23:06.817Z,6.23
2018-12-07T23:25:34.344Z,6.25
2018-12-07T23:28:01.885Z,6.15
2018-12-07T23:30:29.415Z,6.17
2018-12-07T23:32:56.982Z,6.15
2018-12-07T23:35:26.348Z,6.21
2018-12-07T23:37:55.109Z,6.31
2018-12-07T23:40:22.637Z,6.36
2018-12-07T23:42:52.214Z,6.37
2018-12-07T23:45:19.748Z,6.29
2018-12-07T23:47:47.285Z,6.24
2018-12-07T23:50:14.812Z,6.30
2018-12-07T23:52:42.347Z,6.29
2018-12-07T23:55:10.606Z,6.24
2018-12-07T23:57:39.501Z,6.35
